sensor_id;sensor_type;location;lat;lon;timestamp;P1;durP1;ratioP1;P2;durP2;ratioP2
53961;SDS011;39868;53.398;6.564;2022-07-17T00:01:26;2.28;;;1.92;;
53961;SDS011;39868;53.398;6.564;2022-07-17T00:03:54;4.30;;;1.73;;
53961;SDS011;39868;53.398;6.564;2022-07-17T00:06:23;1.38;;;1.27;;
53961;SDS011;39868;53.398;6.564;2022-07-17T00:08:51;4.15;;;0.98;;
53961;SDS011;39868;53.398;6.564;2022-07-17T00:11:19;2.58;;;1.13;;
53961;SDS011;39868;53.398;6.564;2022-07-17T00:13:46;2.15;;;0.90;;
53961;SDS011;39868;53.398;6.564;2022-07-17T00:16:14;0.90;;;0.80;;
53961;SDS011;39868;53.398;6.564;2022-07-17T00:18:42;1.92;;;0.90;;
53961;SDS011;39868;53.398;6.564;2022-07-17T00:21:10;1.42;;;0.88;;
53961;SDS011;39868;53.398;6.564;2022-07-17T00:23:37;1.10;;;0.82;;
53961;SDS011;39868;53.398;6.564;2022-07-17T00:26:04;2.20;;;0.90;;
53961;SDS011;39868;53.398;6.564;2022-07-17T00:28:32;2.90;;;0.80;;
53961;SDS011;39868;53.398;6.564;2022-07-17T00:31:00;2.83;;;0.93;;
53961;SDS011;39868;53.398;6.564;2022-07-17T00:33:28;4.60;;;1.33;;
53961;SDS011;39868;53.398;6.564;2022-07-17T00:35:55;2.35;;;1.05;;
53961;SDS011;39868;53.398;6.564;2022-07-17T00:38:23;2.55;;;1.02;;
53961;SDS011;39868;53.398;6.564;2022-07-17T00:40:52;2.65;;;1.40;;
53961;SDS011;39868;53.398;6.564;2022-07-17T00:43:21;3.22;;;1.33;;
53961;SDS011;39868;53.398;6.564;2022-07-17T00:45:56;1.85;;;1.45;;
53961;SDS011;39868;53.398;6.564;2022-07-17T00:48:25;1.98;;;1.02;;
53961;SDS011;39868;53.398;6.564;2022-07-17T00:50:53;3.10;;;1.40;;
53961;SDS011;39868;53.398;6.564;2022-07-17T00:53:21;3.10;;;1.58;;
53961;SDS011;39868;53.398;6.564;2022-07-17T00:55:50;2.72;;;1.15;;
53961;SDS011;39868;53.398;6.564;2022-07-17T00:58:19;2.78;;;1.27;;
53961;SDS011;39868;53.398;6.564;2022-07-17T01:00:50;1.90;;;1.00;;
53961;SDS011;39868;53.398;6.564;2022-07-17T01:03:19;0.85;;;0.80;;
53961;SDS011;39868;53.398;6.564;2022-07-17T01:05:48;2.50;;;1.10;;
53961;SDS011;39868;53.398;6.564;2022-07-17T01:08:15;1.58;;;0.90;;
53961;SDS011;39868;53.398;6.564;2022-07-17T01:10:43;1.10;;;1.00;;
53961;SDS011;39868;53.398;6.564;2022-07-17T01:13:10;2.67;;;1.38;;
53961;SDS011;39868;53.398;6.564;2022-07-17T01:15:39;2.38;;;1.20;;
53961;SDS011;39868;53.398;6.564;2022-07-17T01:18:09;1.30;;;1.20;;
53961;SDS011;39868;53.398;6.564;2022-07-17T01:20:39;2.10;;;1.23;;
53961;SDS011;39868;53.398;6.564;2022-07-17T01:23:08;1.92;;;1.20;;
53961;SDS011;39868;53.398;6.564;2022-07-17T01:25:36;1.25;;;1.10;;
53961;SDS011;39868;53.398;6.564;2022-07-17T01:28:04;1.77;;;1.10;;
53961;SDS011;39868;53.398;6.564;2022-07-17T01:30:33;1.25;;;1.02;;
53961;SDS011;39868;53.398;6.564;2022-07-17T01:33:02;2.00;;;1.00;;
53961;SDS011;39868;53.398;6.564;2022-07-17T01:35:30;2.35;;;0.80;;
53961;SDS011;39868;53.398;6.564;2022-07-17T01:37:58;1.85;;;0.95;;
53961;SDS011;39868;53.398;6.564;2022-07-17T01:40:26;1.98;;;1.10;;
53961;SDS011;39868;53.398;6.564;2022-07-17T01:42:53;1.65;;;0.90;;
53961;SDS011;39868;53.398;6.564;2022-07-17T01:45:21;2.53;;;1.08;;
53961;SDS011;39868;53.398;6.564;2022-07-17T01:47:49;2.50;;;1.10;;
53961;SDS011;39868;53.398;6.564;2022-07-17T01:50:17;3.72;;;1.23;;
53961;SDS011;39868;53.398;6.564;2022-07-17T01:52:44;3.08;;;1.00;;
53961;SDS011;39868;53.398;6.564;2022-07-17T01:55:13;2.03;;;0.88;;
53961;SDS011;39868;53.398;6.564;2022-07-17T01:57:42;3.17;;;1.33;;
53961;SDS011;39868;53.398;6.564;2022-07-17T02:00:11;3.25;;;1.30;;
53961;SDS011;39868;53.398;6.564;2022-07-17T02:02:44;1.50;;;1.15;;
53961;SDS011;39868;53.398;6.564;2022-07-17T02:05:12;1.42;;;1.08;;
53961;SDS011;39868;53.398;6.564;2022-07-17T02:07:39;2.50;;;1.20;;
53961;SDS011;39868;53.398;6.564;2022-07-17T02:10:08;1.70;;;1.00;;
53961;SDS011;39868;53.398;6.564;2022-07-17T02:12:37;4.07;;;1.08;;
53961;SDS011;39868;53.398;6.564;2022-07-17T02:15:05;3.28;;;1.60;;
53961;SDS011;39868;53.398;6.564;2022-07-17T02:17:36;2.00;;;1.40;;
53961;SDS011;39868;53.398;6.564;2022-07-17T02:20:06;2.42;;;1.73;;
53961;SDS011;39868;53.398;6.564;2022-07-17T02:22:35;2.58;;;1.90;;
53961;SDS011;39868;53.398;6.564;2022-07-17T02:25:04;3.88;;;2.00;;
53961;SDS011;39868;53.398;6.564;2022-07-17T02:27:33;5.60;;;1.77;;
53961;SDS011;39868;53.398;6.564;2022-07-17T02:30:02;2.10;;;1.80;;
53961;SDS011;39868;53.398;6.564;2022-07-17T02:32:35;1.77;;;1.67;;
53961;SDS011;39868;53.398;6.564;2022-07-17T02:35:02;4.35;;;1.90;;
53961;SDS011;39868;53.398;6.564;2022-07-17T02:37:31;1.40;;;1.10;;
53961;SDS011;39868;53.398;6.564;2022-07-17T02:39:58;1.38;;;1.10;;
53961;SDS011;39868;53.398;6.564;2022-07-17T02:42:26;1.60;;;1.40;;
53961;SDS011;39868;53.398;6.564;2022-07-17T02:44:55;1.55;;;1.45;;
53961;SDS011;39868;53.398;6.564;2022-07-17T02:47:25;2.10;;;1.90;;
53961;SDS011;39868;53.398;6.564;2022-07-17T02:49:54;1.75;;;1.33;;
53961;SDS011;39868;53.398;6.564;2022-07-17T02:52:22;2.25;;;1.73;;
53961;SDS011;39868;53.398;6.564;2022-07-17T02:54:49;3.67;;;1.60;;
53961;SDS011;39868;53.398;6.564;2022-07-17T02:57:17;3.30;;;1.80;;
53961;SDS011;39868;53.398;6.564;2022-07-17T02:59:45;1.60;;;1.50;;
53961;SDS011;39868;53.398;6.564;2022-07-17T03:02:13;1.98;;;1.55;;
53961;SDS011;39868;53.398;6.564;2022-07-17T03:04:41;2.63;;;1.90;;
53961;SDS011;39868;53.398;6.564;2022-07-17T03:07:08;4.90;;;1.83;;
53961;SDS011;39868;53.398;6.564;2022-07-17T03:09:35;2.80;;;2.08;;
53961;SDS011;39868;53.398;6.564;2022-07-17T03:12:03;4.13;;;2.28;;
53961;SDS011;39868;53.398;6.564;2022-07-17T03:14:30;2.83;;;1.98;;
53961;SDS011;39868;53.398;6.564;2022-07-17T03:16:58;3.10;;;1.98;;
53961;SDS011;39868;53.398;6.564;2022-07-17T03:19:26;4.63;;;1.80;;
53961;SDS011;39868;53.398;6.564;2022-07-17T03:21:53;3.75;;;1.92;;
53961;SDS011;39868;53.398;6.564;2022-07-17T03:24:21;5.20;;;2.22;;
53961;SDS011;39868;53.398;6.564;2022-07-17T03:26:48;2.38;;;1.70;;
53961;SDS011;39868;53.398;6.564;2022-07-17T03:29:16;2.58;;;1.67;;
53961;SDS011;39868;53.398;6.564;2022-07-17T03:31:44;2.97;;;1.60;;
53961;SDS011;39868;53.398;6.564;2022-07-17T03:34:12;2.55;;;1.50;;
53961;SDS011;39868;53.398;6.564;2022-07-17T03:36:40;2.17;;;1.38;;
53961;SDS011;39868;53.398;6.564;2022-07-17T03:39:08;3.20;;;1.38;;
53961;SDS011;39868;53.398;6.564;2022-07-17T03:41:35;5.97;;;2.00;;
53961;SDS011;39868;53.398;6.564;2022-07-17T03:44:03;1.65;;;0.82;;
53961;SDS011;39868;53.398;6.564;2022-07-17T03:46:34;2.47;;;1.40;;
53961;SDS011;39868;53.398;6.564;2022-07-17T03:49:01;4.63;;;1.63;;
53961;SDS011;39868;53.398;6.564;2022-07-17T03:51:29;3.75;;;2.33;;
53961;SDS011;39868;53.398;6.564;2022-07-17T03:53:57;3.45;;;1.88;;
53961;SDS011;39868;53.398;6.564;2022-07-17T03:56:24;2.78;;;1.80;;
53961;SDS011;39868;53.398;6.564;2022-07-17T03:58:52;2.78;;;1.50;;
53961;SDS011;39868;53.398;6.564;2022-07-17T04:01:19;3.53;;;1.65;;
53961;SDS011;39868;53.398;6.564;2022-07-17T04:03:47;3.08;;;1.50;;
53961;SDS011;39868;53.398;6.564;2022-07-17T04:06:14;3.63;;;1.40;;
53961;SDS011;39868;53.398;6.564;2022-07-17T04:08:42;1.67;;;1.20;;
53961;SDS011;39868;53.398;6.564;2022-07-17T04:11:10;3.13;;;1.35;;
53961;SDS011;39868;53.398;6.564;2022-07-17T04:13:37;3.25;;;1.42;;
53961;SDS011;39868;53.398;6.564;2022-07-17T04:16:05;2.83;;;1.45;;
53961;SDS011;39868;53.398;6.564;2022-07-17T04:18:33;3.40;;;1.55;;
53961;SDS011;39868;53.398;6.564;2022-07-17T04:21:03;5.53;;;1.58;;
53961;SDS011;39868;53.398;6.564;2022-07-17T04:23:32;2.40;;;1.40;;
53961;SDS011;39868;53.398;6.564;2022-07-17T04:26:01;3.92;;;1.50;;
53961;SDS011;39868;53.398;6.564;2022-07-17T04:28:36;2.42;;;1.30;;
53961;SDS011;39868;53.398;6.564;2022-07-17T04:31:04;2.30;;;1.30;;
53961;SDS011;39868;53.398;6.564;2022-07-17T04:33:32;4.13;;;1.70;;
53961;SDS011;39868;53.398;6.564;2022-07-17T04:35:59;4.32;;;1.83;;
53961;SDS011;39868;53.398;6.564;2022-07-17T04:38:26;1.70;;;0.95;;
53961;SDS011;39868;53.398;6.564;2022-07-17T04:40:54;3.83;;;1.65;;
53961;SDS011;39868;53.398;6.564;2022-07-17T04:43:21;2.83;;;1.20;;
53961;SDS011;39868;53.398;6.564;2022-07-17T04:45:49;3.88;;;1.35;;
53961;SDS011;39868;53.398;6.564;2022-07-17T04:48:16;2.90;;;1.52;;
53961;SDS011;39868;53.398;6.564;2022-07-17T04:50:44;3.88;;;1.67;;
53961;SDS011;39868;53.398;6.564;2022-07-17T04:53:11;3.05;;;1.58;;
53961;SDS011;39868;53.398;6.564;2022-07-17T04:55:38;4.05;;;1.77;;
53961;SDS011;39868;53.398;6.564;2022-07-17T04:58:06;4.22;;;1.60;;
53961;SDS011;39868;53.398;6.564;2022-07-17T05:00:33;7.57;;;1.65;;
53961;SDS011;39868;53.398;6.564;2022-07-17T05:03:01;2.72;;;1.52;;
53961;SDS011;39868;53.398;6.564;2022-07-17T05:05:29;4.10;;;1.85;;
53961;SDS011;39868;53.398;6.564;2022-07-17T05:07:56;3.22;;;1.25;;
53961;SDS011;39868;53.398;6.564;2022-07-17T05:10:23;2.47;;;1.50;;
53961;SDS011;39868;53.398;6.564;2022-07-17T05:12:53;2.97;;;1.50;;
53961;SDS011;39868;53.398;6.564;2022-07-17T05:15:21;2.35;;;1.25;;
53961;SDS011;39868;53.398;6.564;2022-07-17T05:17:50;3.53;;;1.38;;
53961;SDS011;39868;53.398;6.564;2022-07-17T05:20:18;6.55;;;1.63;;
53961;SDS011;39868;53.398;6.564;2022-07-17T05:22:45;3.90;;;1.40;;
53961;SDS011;39868;53.398;6.564;2022-07-17T05:25:14;2.47;;;1.52;;
53961;SDS011;39868;53.398;6.564;2022-07-17T05:27:41;3.80;;;1.98;;
53961;SDS011;39868;53.398;6.564;2022-07-17T05:30:08;2.38;;;1.60;;
53961;SDS011;39868;53.398;6.564;2022-07-17T05:32:36;3.55;;;1.77;;
53961;SDS011;39868;53.398;6.564;2022-07-17T05:35:04;2.47;;;2.28;;
53961;SDS011;39868;53.398;6.564;2022-07-17T05:37:32;2.70;;;1.95;;
53961;SDS011;39868;53.398;6.564;2022-07-17T05:40:00;5.07;;;2.10;;
53961;SDS011;39868;53.398;6.564;2022-07-17T05:42:27;3.50;;;2.10;;
53961;SDS011;39868;53.398;6.564;2022-07-17T05:45:01;4.18;;;1.98;;
53961;SDS011;39868;53.398;6.564;2022-07-17T05:47:29;2.95;;;2.10;;
53961;SDS011;39868;53.398;6.564;2022-07-17T05:49:57;3.50;;;2.00;;
53961;SDS011;39868;53.398;6.564;2022-07-17T05:52:24;2.60;;;2.10;;
53961;SDS011;39868;53.398;6.564;2022-07-17T05:54:52;2.35;;;1.98;;
53961;SDS011;39868;53.398;6.564;2022-07-17T05:57:19;3.90;;;2.20;;
53961;SDS011;39868;53.398;6.564;2022-07-17T05:59:47;2.55;;;1.70;;
53961;SDS011;39868;53.398;6.564;2022-07-17T06:02:14;2.10;;;1.50;;
53961;SDS011;39868;53.398;6.564;2022-07-17T06:04:42;1.90;;;1.75;;
53961;SDS011;39868;53.398;6.564;2022-07-17T06:07:09;2.65;;;1.85;;
53961;SDS011;39868;53.398;6.564;2022-07-17T06:09:37;2.75;;;2.00;;
53961;SDS011;39868;53.398;6.564;2022-07-17T06:12:04;1.83;;;1.73;;
53961;SDS011;39868;53.398;6.564;2022-07-17T06:14:32;6.30;;;1.90;;
53961;SDS011;39868;53.398;6.564;2022-07-17T06:16:59;2.50;;;1.73;;
53961;SDS011;39868;53.398;6.564;2022-07-17T06:19:27;2.28;;;1.50;;
53961;SDS011;39868;53.398;6.564;2022-07-17T06:21:54;4.95;;;1.77;;
53961;SDS011;39868;53.398;6.564;2022-07-17T06:24:21;4.97;;;1.90;;
53961;SDS011;39868;53.398;6.564;2022-07-17T06:26:49;2.40;;;1.73;;
53961;SDS011;39868;53.398;6.564;2022-07-17T06:29:17;4.38;;;1.92;;
53961;SDS011;39868;53.398;6.564;2022-07-17T06:31:44;2.30;;;2.10;;
53961;SDS011;39868;53.398;6.564;2022-07-17T06:34:12;5.68;;;2.35;;
53961;SDS011;39868;53.398;6.564;2022-07-17T06:36:39;3.78;;;2.45;;
53961;SDS011;39868;53.398;6.564;2022-07-17T06:39:07;4.57;;;2.28;;
53961;SDS011;39868;53.398;6.564;2022-07-17T06:41:34;2.55;;;2.35;;
53961;SDS011;39868;53.398;6.564;2022-07-17T06:44:03;2.95;;;2.35;;
53961;SDS011;39868;53.398;6.564;2022-07-17T06:46:30;2.78;;;2.45;;
53961;SDS011;39868;53.398;6.564;2022-07-17T06:48:58;3.00;;;2.22;;
53961;SDS011;39868;53.398;6.564;2022-07-17T06:51:25;2.15;;;1.85;;
53961;SDS011;39868;53.398;6.564;2022-07-17T06:53:53;3.42;;;2.30;;
53961;SDS011;39868;53.398;6.564;2022-07-17T06:56:20;2.75;;;2.20;;
53961;SDS011;39868;53.398;6.564;2022-07-17T06:58:48;4.50;;;2.42;;
53961;SDS011;39868;53.398;6.564;2022-07-17T07:01:16;3.17;;;1.98;;
53961;SDS011;39868;53.398;6.564;2022-07-17T07:03:43;2.40;;;2.22;;
53961;SDS011;39868;53.398;6.564;2022-07-17T07:06:11;2.28;;;2.08;;
53961;SDS011;39868;53.398;6.564;2022-07-17T07:08:38;4.75;;;2.20;;
53961;SDS011;39868;53.398;6.564;2022-07-17T07:11:06;3.50;;;2.25;;
53961;SDS011;39868;53.398;6.564;2022-07-17T07:13:34;3.92;;;2.15;;
53961;SDS011;39868;53.398;6.564;2022-07-17T07:16:01;2.25;;;2.05;;
53961;SDS011;39868;53.398;6.564;2022-07-17T07:18:29;2.40;;;2.20;;
53961;SDS011;39868;53.398;6.564;2022-07-17T07:20:56;2.95;;;2.30;;
53961;SDS011;39868;53.398;6.564;2022-07-17T07:23:24;4.32;;;2.33;;
53961;SDS011;39868;53.398;6.564;2022-07-17T07:25:52;2.50;;;2.15;;
53961;SDS011;39868;53.398;6.564;2022-07-17T07:28:19;2.60;;;1.95;;
53961;SDS011;39868;53.398;6.564;2022-07-17T07:30:47;4.30;;;2.30;;
53961;SDS011;39868;53.398;6.564;2022-07-17T07:33:15;2.40;;;2.20;;
53961;SDS011;39868;53.398;6.564;2022-07-17T07:35:43;2.33;;;2.10;;
53961;SDS011;39868;53.398;6.564;2022-07-17T07:38:10;4.28;;;2.38;;
53961;SDS011;39868;53.398;6.564;2022-07-17T07:40:38;2.22;;;2.13;;
53961;SDS011;39868;53.398;6.564;2022-07-17T07:43:05;2.95;;;2.13;;
53961;SDS011;39868;53.398;6.564;2022-07-17T07:45:33;2.50;;;2.28;;
53961;SDS011;39868;53.398;6.564;2022-07-17T07:48:01;2.70;;;2.33;;
53961;SDS011;39868;53.398;6.564;2022-07-17T07:50:29;4.50;;;2.47;;
53961;SDS011;39868;53.398;6.564;2022-07-17T07:52:56;2.40;;;2.20;;
53961;SDS011;39868;53.398;6.564;2022-07-17T07:55:24;2.67;;;2.22;;
53961;SDS011;39868;53.398;6.564;2022-07-17T08:00:49;2.42;;;2.20;;
53961;SDS011;39868;53.398;6.564;2022-07-17T08:03:17;3.92;;;2.30;;
53961;SDS011;39868;53.398;6.564;2022-07-17T08:05:50;2.38;;;2.22;;
53961;SDS011;39868;53.398;6.564;2022-07-17T08:08:18;3.45;;;2.42;;
53961;SDS011;39868;53.398;6.564;2022-07-17T08:10:45;2.38;;;2.17;;
53961;SDS011;39868;53.398;6.564;2022-07-17T08:13:13;4.25;;;2.40;;
53961;SDS011;39868;53.398;6.564;2022-07-17T08:15:40;2.55;;;2.20;;
53961;SDS011;39868;53.398;6.564;2022-07-17T08:18:08;4.50;;;2.60;;
53961;SDS011;39868;53.398;6.564;2022-07-17T08:20:35;3.15;;;2.20;;
53961;SDS011;39868;53.398;6.564;2022-07-17T08:23:03;2.55;;;2.33;;
53961;SDS011;39868;53.398;6.564;2022-07-17T08:25:32;2.92;;;2.60;;
53961;SDS011;39868;53.398;6.564;2022-07-17T08:28:03;2.75;;;2.53;;
53961;SDS011;39868;53.398;6.564;2022-07-17T08:30:32;2.40;;;2.30;;
53961;SDS011;39868;53.398;6.564;2022-07-17T08:33:02;2.60;;;2.40;;
53961;SDS011;39868;53.398;6.564;2022-07-17T08:35:34;2.53;;;2.40;;
53961;SDS011;39868;53.398;6.564;2022-07-17T08:38:02;2.67;;;2.50;;
53961;SDS011;39868;53.398;6.564;2022-07-17T08:40:32;2.85;;;2.22;;
53961;SDS011;39868;53.398;6.564;2022-07-17T08:43:05;6.43;;;2.72;;
53961;SDS011;39868;53.398;6.564;2022-07-17T08:45:34;4.80;;;2.60;;
53961;SDS011;39868;53.398;6.564;2022-07-17T08:48:01;2.83;;;2.63;;
53961;SDS011;39868;53.398;6.564;2022-07-17T08:50:31;4.85;;;2.53;;
53961;SDS011;39868;53.398;6.564;2022-07-17T08:53:01;3.15;;;2.60;;
53961;SDS011;39868;53.398;6.564;2022-07-17T08:55:29;4.15;;;2.45;;
53961;SDS011;39868;53.398;6.564;2022-07-17T08:57:57;3.00;;;2.70;;
53961;SDS011;39868;53.398;6.564;2022-07-17T09:00:25;3.97;;;2.40;;
53961;SDS011;39868;53.398;6.564;2022-07-17T09:02:55;2.80;;;2.50;;
53961;SDS011;39868;53.398;6.564;2022-07-17T09:05:40;3.60;;;2.92;;
53961;SDS011;39868;53.398;6.564;2022-07-17T09:08:17;2.70;;;2.42;;
53961;SDS011;39868;53.398;6.564;2022-07-17T09:10:47;3.53;;;2.70;;
53961;SDS011;39868;53.398;6.564;2022-07-17T09:13:17;4.18;;;2.45;;
53961;SDS011;39868;53.398;6.564;2022-07-17T09:15:46;5.53;;;2.67;;
53961;SDS011;39868;53.398;6.564;2022-07-17T09:18:15;3.60;;;2.45;;
53961;SDS011;39868;53.398;6.564;2022-07-17T09:20:45;4.13;;;2.55;;
53961;SDS011;39868;53.398;6.564;2022-07-17T09:23:14;3.17;;;2.67;;
53961;SDS011;39868;53.398;6.564;2022-07-17T09:25:44;4.32;;;2.83;;
53961;SDS011;39868;53.398;6.564;2022-07-17T09:28:16;4.05;;;2.63;;
53961;SDS011;39868;53.398;6.564;2022-07-17T09:30:54;2.90;;;2.70;;
53961;SDS011;39868;53.398;6.564;2022-07-17T09:33:26;3.15;;;2.88;;
53961;SDS011;39868;53.398;6.564;2022-07-17T09:35:55;3.38;;;3.08;;
53961;SDS011;39868;53.398;6.564;2022-07-17T09:38:33;3.80;;;2.90;;
53961;SDS011;39868;53.398;6.564;2022-07-17T09:41:03;3.35;;;2.60;;
53961;SDS011;39868;53.398;6.564;2022-07-17T09:43:47;3.85;;;2.70;;
53961;SDS011;39868;53.398;6.564;2022-07-17T09:48:56;2.60;;;2.40;;
53961;SDS011;39868;53.398;6.564;2022-07-17T09:51:29;3.20;;;2.80;;
53961;SDS011;39868;53.398;6.564;2022-07-17T09:56:26;3.00;;;2.70;;
53961;SDS011;39868;53.398;6.564;2022-07-17T09:59:00;3.35;;;2.80;;
53961;SDS011;39868;53.398;6.564;2022-07-17T10:01:40;2.83;;;2.63;;
53961;SDS011;39868;53.398;6.564;2022-07-17T10:04:10;2.97;;;2.63;;
53961;SDS011;39868;53.398;6.564;2022-07-17T10:06:38;2.90;;;2.70;;
53961;SDS011;39868;53.398;6.564;2022-07-17T10:09:06;3.50;;;2.85;;
53961;SDS011;39868;53.398;6.564;2022-07-17T10:11:35;4.15;;;3.10;;
53961;SDS011;39868;53.398;6.564;2022-07-17T10:14:13;2.90;;;2.70;;
53961;SDS011;39868;53.398;6.564;2022-07-17T10:16:43;2.95;;;2.75;;
53961;SDS011;39868;53.398;6.564;2022-07-17T10:21:54;3.20;;;2.78;;
53961;SDS011;39868;53.398;6.564;2022-07-17T10:24:26;5.68;;;3.05;;
53961;SDS011;39868;53.398;6.564;2022-07-17T10:26:57;3.05;;;2.85;;
53961;SDS011;39868;53.398;6.564;2022-07-17T10:29:28;3.10;;;2.90;;
53961;SDS011;39868;53.398;6.564;2022-07-17T10:31:56;3.03;;;2.80;;
53961;SDS011;39868;53.398;6.564;2022-07-17T10:42:39;2.67;;;2.47;;
53961;SDS011;39868;53.398;6.564;2022-07-17T10:48:04;3.38;;;2.78;;
53961;SDS011;39868;53.398;6.564;2022-07-17T10:53:11;4.20;;;2.75;;
53961;SDS011;39868;53.398;6.564;2022-07-17T10:55:41;2.90;;;2.60;;
53961;SDS011;39868;53.398;6.564;2022-07-17T11:03:30;3.80;;;2.70;;
53961;SDS011;39868;53.398;6.564;2022-07-17T11:06:05;4.35;;;2.85;;
53961;SDS011;39868;53.398;6.564;2022-07-17T11:08:35;4.78;;;2.75;;
53961;SDS011;39868;53.398;6.564;2022-07-17T11:11:07;2.72;;;2.53;;
53961;SDS011;39868;53.398;6.564;2022-07-17T11:13:44;2.80;;;2.60;;
53961;SDS011;39868;53.398;6.564;2022-07-17T11:16:11;4.18;;;2.80;;
53961;SDS011;39868;53.398;6.564;2022-07-17T11:18:45;2.90;;;2.70;;
53961;SDS011;39868;53.398;6.564;2022-07-17T11:21:14;3.75;;;2.63;;
53961;SDS011;39868;53.398;6.564;2022-07-17T11:23:49;3.60;;;2.70;;
53961;SDS011;39868;53.398;6.564;2022-07-17T11:26:18;2.80;;;2.70;;
53961;SDS011;39868;53.398;6.564;2022-07-17T11:28:47;3.13;;;2.78;;
53961;SDS011;39868;53.398;6.564;2022-07-17T11:31:23;2.97;;;2.78;;
53961;SDS011;39868;53.398;6.564;2022-07-17T11:33:52;2.80;;;2.60;;
53961;SDS011;39868;53.398;6.564;2022-07-17T11:36:26;3.10;;;2.88;;
53961;SDS011;39868;53.398;6.564;2022-07-17T11:38:57;2.85;;;2.75;;
53961;SDS011;39868;53.398;6.564;2022-07-17T11:41:36;3.40;;;2.80;;
53961;SDS011;39868;53.398;6.564;2022-07-17T11:44:12;3.15;;;2.85;;
53961;SDS011;39868;53.398;6.564;2022-07-17T11:46:41;3.95;;;2.97;;
53961;SDS011;39868;53.398;6.564;2022-07-17T11:49:33;3.28;;;3.05;;
53961;SDS011;39868;53.398;6.564;2022-07-17T11:52:08;3.22;;;3.00;;
53961;SDS011;39868;53.398;6.564;2022-07-17T11:57:16;3.17;;;2.97;;
53961;SDS011;39868;53.398;6.564;2022-07-17T11:59:45;3.20;;;2.90;;
53961;SDS011;39868;53.398;6.564;2022-07-17T12:02:21;4.45;;;3.08;;
53961;SDS011;39868;53.398;6.564;2022-07-17T12:04:56;3.10;;;2.90;;
53961;SDS011;39868;53.398;6.564;2022-07-17T12:07:47;4.47;;;3.10;;
53961;SDS011;39868;53.398;6.564;2022-07-17T12:10:23;3.50;;;3.20;;
53961;SDS011;39868;53.398;6.564;2022-07-17T12:15:42;3.72;;;3.42;;
53961;SDS011;39868;53.398;6.564;2022-07-17T12:20:56;3.40;;;3.00;;
53961;SDS011;39868;53.398;6.564;2022-07-17T12:28:39;3.55;;;3.25;;
53961;SDS011;39868;53.398;6.564;2022-07-17T12:31:07;3.95;;;3.17;;
53961;SDS011;39868;53.398;6.564;2022-07-17T12:33:38;3.58;;;3.28;;
53961;SDS011;39868;53.398;6.564;2022-07-17T12:36:06;3.70;;;3.40;;
53961;SDS011;39868;53.398;6.564;2022-07-17T12:38:33;3.15;;;2.67;;
53961;SDS011;39868;53.398;6.564;2022-07-17T12:41:01;2.83;;;2.63;;
53961;SDS011;39868;53.398;6.564;2022-07-17T12:43:29;3.55;;;2.47;;
53961;SDS011;39868;53.398;6.564;2022-07-17T12:45:56;3.50;;;3.20;;
53961;SDS011;39868;53.398;6.564;2022-07-17T12:48:36;3.22;;;2.50;;
53961;SDS011;39868;53.398;6.564;2022-07-17T12:51:07;4.07;;;2.33;;
53961;SDS011;39868;53.398;6.564;2022-07-17T12:53:35;3.05;;;2.40;;
53961;SDS011;39868;53.398;6.564;2022-07-17T12:56:03;3.75;;;3.15;;
53961;SDS011;39868;53.398;6.564;2022-07-17T12:58:31;4.40;;;3.00;;
53961;SDS011;39868;53.398;6.564;2022-07-17T13:00:59;2.92;;;2.60;;
53961;SDS011;39868;53.398;6.564;2022-07-17T13:03:27;3.40;;;2.92;;
53961;SDS011;39868;53.398;6.564;2022-07-17T13:05:55;4.05;;;3.00;;
53961;SDS011;39868;53.398;6.564;2022-07-17T13:08:22;3.10;;;2.80;;
53961;SDS011;39868;53.398;6.564;2022-07-17T13:10:49;3.72;;;3.42;;
53961;SDS011;39868;53.398;6.564;2022-07-17T13:13:17;3.05;;;2.70;;
53961;SDS011;39868;53.398;6.564;2022-07-17T13:15:44;3.60;;;3.30;;
53961;SDS011;39868;53.398;6.564;2022-07-17T13:18:12;5.50;;;3.55;;
53961;SDS011;39868;53.398;6.564;2022-07-17T13:20:39;3.92;;;2.85;;
53961;SDS011;39868;53.398;6.564;2022-07-17T13:23:07;3.67;;;3.05;;
53961;SDS011;39868;53.398;6.564;2022-07-17T13:25:35;4.50;;;3.45;;
53961;SDS011;39868;53.398;6.564;2022-07-17T13:28:02;3.20;;;2.90;;
53961;SDS011;39868;53.398;6.564;2022-07-17T13:30:32;6.55;;;3.72;;
53961;SDS011;39868;53.398;6.564;2022-07-17T13:33:00;4.13;;;2.63;;
53961;SDS011;39868;53.398;6.564;2022-07-17T13:35:28;3.83;;;3.40;;
53961;SDS011;39868;53.398;6.564;2022-07-17T13:37:56;3.60;;;2.60;;
53961;SDS011;39868;53.398;6.564;2022-07-17T13:40:24;3.65;;;2.85;;
53961;SDS011;39868;53.398;6.564;2022-07-17T13:42:51;5.22;;;3.75;;
53961;SDS011;39868;53.398;6.564;2022-07-17T13:45:19;3.65;;;3.35;;
53961;SDS011;39868;53.398;6.564;2022-07-17T13:47:46;4.60;;;3.72;;
53961;SDS011;39868;53.398;6.564;2022-07-17T13:50:14;3.50;;;3.20;;
53961;SDS011;39868;53.398;6.564;2022-07-17T13:52:42;3.88;;;3.58;;
53961;SDS011;39868;53.398;6.564;2022-07-17T13:55:09;4.05;;;3.65;;
53961;SDS011;39868;53.398;6.564;2022-07-17T13:57:57;3.65;;;3.35;;
53961;SDS011;39868;53.398;6.564;2022-07-17T14:00:25;4.45;;;2.85;;
53961;SDS011;39868;53.398;6.564;2022-07-17T14:02:52;3.75;;;3.08;;
53961;SDS011;39868;53.398;6.564;2022-07-17T14:05:22;3.30;;;3.00;;
53961;SDS011;39868;53.398;6.564;2022-07-17T14:07:49;2.90;;;2.70;;
53961;SDS011;39868;53.398;6.564;2022-07-17T14:10:17;3.13;;;2.50;;
53961;SDS011;39868;53.398;6.564;2022-07-17T14:12:44;3.53;;;3.30;;
53961;SDS011;39868;53.398;6.564;2022-07-17T14:15:12;3.78;;;3.47;;
53961;SDS011;39868;53.398;6.564;2022-07-17T14:17:39;3.47;;;2.90;;
53961;SDS011;39868;53.398;6.564;2022-07-17T14:20:07;3.58;;;2.70;;
53961;SDS011;39868;53.398;6.564;2022-07-17T14:22:35;3.20;;;2.75;;
53961;SDS011;39868;53.398;6.564;2022-07-17T14:25:02;4.50;;;3.53;;
53961;SDS011;39868;53.398;6.564;2022-07-17T14:27:30;2.88;;;2.38;;
53961;SDS011;39868;53.398;6.564;2022-07-17T14:29:57;3.42;;;3.05;;
53961;SDS011;39868;53.398;6.564;2022-07-17T14:32:25;3.45;;;2.40;;
53961;SDS011;39868;53.398;6.564;2022-07-17T14:34:52;2.83;;;2.55;;
53961;SDS011;39868;53.398;6.564;2022-07-17T14:37:20;3.38;;;3.08;;
53961;SDS011;39868;53.398;6.564;2022-07-17T14:39:49;2.58;;;2.35;;
53961;SDS011;39868;53.398;6.564;2022-07-17T14:42:16;3.00;;;2.72;;
53961;SDS011;39868;53.398;6.564;2022-07-17T14:44:44;2.80;;;2.60;;
53961;SDS011;39868;53.398;6.564;2022-07-17T14:47:12;3.22;;;2.67;;
53961;SDS011;39868;53.398;6.564;2022-07-17T14:49:39;3.80;;;3.50;;
53961;SDS011;39868;53.398;6.564;2022-07-17T14:52:07;4.00;;;3.60;;
53961;SDS011;39868;53.398;6.564;2022-07-17T14:54:35;3.00;;;2.78;;
53961;SDS011;39868;53.398;6.564;2022-07-17T14:57:02;3.13;;;2.83;;
53961;SDS011;39868;53.398;6.564;2022-07-17T14:59:30;5.03;;;2.95;;
53961;SDS011;39868;53.398;6.564;2022-07-17T15:01:57;3.78;;;3.03;;
53961;SDS011;39868;53.398;6.564;2022-07-17T15:04:25;4.15;;;2.90;;
53961;SDS011;39868;53.398;6.564;2022-07-17T15:06:52;2.45;;;2.25;;
53961;SDS011;39868;53.398;6.564;2022-07-17T15:09:27;3.00;;;2.70;;
53961;SDS011;39868;53.398;6.564;2022-07-17T15:11:55;2.72;;;2.42;;
53961;SDS011;39868;53.398;6.564;2022-07-17T15:14:22;3.60;;;3.30;;
53961;SDS011;39868;53.398;6.564;2022-07-17T15:16:49;3.42;;;3.15;;
53961;SDS011;39868;53.398;6.564;2022-07-17T15:19:17;3.60;;;3.30;;
53961;SDS011;39868;53.398;6.564;2022-07-17T15:21:45;2.67;;;2.47;;
53961;SDS011;39868;53.398;6.564;2022-07-17T15:24:18;3.15;;;2.92;;
53961;SDS011;39868;53.398;6.564;2022-07-17T15:26:47;3.90;;;2.55;;
53961;SDS011;39868;53.398;6.564;2022-07-17T15:29:15;3.53;;;2.83;;
53961;SDS011;39868;53.398;6.564;2022-07-17T15:31:43;4.53;;;2.50;;
53961;SDS011;39868;53.398;6.564;2022-07-17T15:34:11;2.35;;;2.15;;
53961;SDS011;39868;53.398;6.564;2022-07-17T15:36:39;3.40;;;2.85;;
53961;SDS011;39868;53.398;6.564;2022-07-17T15:39:07;3.40;;;2.55;;
53961;SDS011;39868;53.398;6.564;2022-07-17T15:41:37;2.85;;;2.20;;